Terminal Aerodrome Forecast
Issued by NWS

Home | Current Version | Previous Version | Graphics & Text | Print | Product List | Glossary On
Versions: 1 2 3 4 5 6 7 8 9 10 11 12 13 14 15 16
000
FTUS43 KGRB 151140
TAFRHI
TAF
KRHI 151140Z 1512/1612 27008KT P6SM SCT020 BKN100
     FM151600 32009G15KT P6SM BKN030
     FM152200 33008KT P6SM -SHSN OVC025 PROB30 1602/1606 4SM -SHSN
      OVC025
     FM160600 31010G17KT P6SM BKN035 BKN080
     FM160900 30009KT P6SM SKC=

USA.gov is the U.S. government's official web portal to all federal, state and local government web resources and services.